Data for 08/17/2010

Time Sea-Level Adjusted Pressure Absolute Pressure Temperature Relative Humidity Dew Point   
(mb) (inHg) (mb) (inHg) (C) (F) (%) (C) (F)
00:05 1020 30.12 849 25.07 15.8 60.5 46 4.3 39.8
00:10 1020 30.12 849 25.07 16 60.9 48 5.2 41.4
00:15 1020 30.12 849 25.07 15.5 59.8 51 5.4 41.7
00:20 1020 30.12 849 25.07 15.2 59.4 50 4.9 40.9
00:25 1020 30.12 849 25.07 15.5 59.8 47 4.3 39.7
00:30 1020 30.12 850 25.1 15.9 60.7 46 4.4 39.9
00:35 1020 30.12 849 25.07 16 60.8 46 4.6 40.2
00:40 1020 30.12 849 25.07 15.9 60.6 47 4.7 40.4
00:45 1020 30.12 849 25.07 15.9 60.6 47 4.6 40.3
00:50 1020 30.12 849 25.07 15.8 60.5 47 4.6 40.3
00:55 1020 30.12 849 25.07 15.8 60.5 48 4.9 40.9
01:00 1020 30.12 849 25.07 15.7 60.2 48 4.7 40.5
01:05 1020 30.12 849 25.07 15.4 59.8 49 4.9 40.9
01:10 1020 30.12 849 25.07 15.2 59.3 50 5 41
01:15 1020 30.12 849 25.07 15 59 51 5.1 41.2
01:20 1020 30.12 849 25.07 14.9 58.9 51 5.1 41.2
01:25 1020 30.12 849 25.07 15.2 59.3 48 4.4 39.9
01:30 1020 30.12 849 25.07 15.3 59.6 49 4.6 40.3
01:35 1020 30.12 849 25.07 15.1 59.2 50 4.8 40.6
01:40 1020 30.12 849 25.07 15.1 59.3 49 4.7 40.5
01:45 1020 30.12 849 25.07 15.1 59.2 50 4.8 40.7
01:50 1020 30.12 849 25.07 15.1 59.3 51 5 41.1
01:55 1020 30.12 849 25.07 14.8 58.6 52 5.1 41.1
02:00 1020 30.12 849 25.07 14.7 58.4 54 5.6 42.1
02:05 1020 30.12 849 25.07 14.6 58.3 51 4.7 40.4
02:10 1020 30.12 849 25.07 15 59 48 4 39.3
02:15 1020 30.12 849 25.07 15.3 59.6 49 4.8 40.6
02:20 1020 30.12 849 25.07 14.8 58.6 51 4.9 40.7
02:25 1020 30.12 849 25.07 14.9 58.8 48 4.1 39.4
02:30 1020 30.12 849 25.07 15.1 59.1 49 4.4 39.9
02:35 1020 30.12 849 25.07 15 59 49 4.4 40
02:40 1020 30.12 849 25.07 15.1 59.1 49 4.4 40
02:45 1020 30.12 849 25.07 15.2 59.3 49 4.8 40.6
02:50 1020 30.12 849 25.07 14.6 58.2 54 5.4 41.7
02:55 1020 30.12 849 25.07 13.8 56.9 56 5.4 41.7
03:00 1020 30.12 849 25.07 13.6 56.4 56 5.1 41.3
03:05 1020 30.12 849 25.07 13.8 56.9 55 4.9 40.8
03:10 1020 30.12 849 25.07 13.9 57.1 55 5.1 41.2
03:15 1020 30.12 849 25.07 13.8 56.8 55 4.8 40.7
03:20 1020 30.12 849 25.07 13.7 56.6 57 5.3 41.5
03:25 1020 30.12 849 25.07 13 55.3 60 5.3 41.6
03:30 1020 30.12 849 25.07 13.1 55.6 55 4.3 39.8
03:35 1020 30.12 849 25.07 13.8 56.8 53 4.6 40.2
03:40 1020 30.12 849 25.07 13.7 56.7 55 4.9 40.8
03:45 1020 30.12 849 25.07 13.2 55.7 58 5 41
03:50 1020 30.12 849 25.07 13 55.4 57 4.8 40.7
03:55 1020 30.12 849 25.07 12.9 55.3 58 4.9 40.9
04:00 1020 30.12 849 25.07 13.1 55.5 58 4.9 40.9
04:05 1020 30.12 849 25.07 13.3 55.9 56 4.8 40.7
04:10 1020 30.12 849 25.07 13.5 56.3 56 5 40.9
04:15 1020 30.12 849 25.07 13 55.5 58 5.1 41.2
04:20 1020 30.12 849 25.07 12.7 54.8 59 4.8 40.7
04:25 1020 30.12 849 25.07 12.9 55.3 56 4.5 40.1
04:30 1020 30.12 849 25.07 13.1 55.5 56 4.7 40.4
04:35 1020 30.12 849 25.07 13.2 55.7 57 4.8 40.6
04:40 1020 30.12 849 25.07 13.1 55.6 57 4.8 40.7
04:45 1020 30.12 849 25.07 13.1 55.6 57 4.8 40.6
04:50 1020 30.12 849 25.07 13.2 55.7 57 4.8 40.7
04:55 1020 30.12 849 25.07 13.1 55.5 57 4.9 40.8
05:00 1020 30.12 849 25.07 13.1 55.5 57 4.8 40.7
05:05 1020 30.12 849 25.07 13.2 55.7 56 4.6 40.2
05:10 1020 30.12 849 25.07 13.5 56.3 54 4.6 40.2
05:15 1020 30.12 849 25.07 13.6 56.4 55 4.8 40.7
05:20 1020 30.12 849 25.07 13.3 56 57 5 41
05:25 1020 30.12 849 25.07 13.1 55.5 58 5 40.9
05:30 1020 30.12 849 25.07 12.9 55.3 58 4.9 40.9
05:35 1020 30.12 849 25.07 12.9 55.2 58 4.9 40.9
05:40 1020 30.12 849 25.07 12.8 55 59 5 40.9
05:45 1020 30.12 849 25.07 12.8 55.1 58 4.7 40.5
05:50 1020 30.12 849 25.07 13.1 55.6 57 4.8 40.6
05:55 1020 30.12 849 25.07 13.2 55.7 57 4.9 40.8
06:00 1020 30.12 849 25.07 13.2 55.7 58 5.1 41.1
06:05 1020 30.12 850 25.1 13 55.4 58 5.1 41.2
06:10 1020 30.12 850 25.1 12.9 55.2 59 5.1 41.1
06:15 1020 30.12 850 25.1 12.9 55.3 58 4.9 40.8
06:20 1020 30.12 850 25.1 12.9 55.1 60 5.3 41.6
06:25 1020 30.12 850 25.1 12.6 54.7 61 5.3 41.6
06:30 1020 30.12 850 25.1 12.7 54.8 59 5 41
06:35 1020 30.12 850 25.1 13.2 55.8 56 4.8 40.6
06:40 1020 30.12 850 25.1 13.2 55.8 58 5.2 41.3
06:45 1020 30.12 850 25.1 12.9 55.2 58 4.9 40.9
06:50 1020 30.12 850 25.1 13.3 55.9 55 4.6 40.3
06:55 1020 30.12 850 25.1 13.9 57 53 4.7 40.4
07:00 1021 30.15 850 25.1 14.2 57.6 54 5.1 41.1
07:05 1020 30.12 850 25.1 14.1 57.4 54 4.9 40.8
07:10 1020 30.12 850 25.1 14.1 57.4 55 5.3 41.5
07:15 1020 30.12 850 25.1 13.8 56.9 57 5.6 42.1
07:20 1020 30.12 850 25.1 13.5 56.3 58 5.4 41.6
07:25 1020 30.12 850 25.1 13.5 56.3 57 5.2 41.4
07:30 1020 30.12 850 25.1 13.7 56.7 56 5.2 41.4
07:35 1020 30.12 850 25.1 13.9 57 56 5.4 41.8
07:40 1020 30.12 850 25.1 14.1 57.4 55 5.2 41.4
07:45 1021 30.15 850 25.1 14.6 58.4 53 5.3 41.6
07:50 1021 30.15 850 25.1 15.3 59.5 51 5.4 41.8
07:55 1021 30.15 850 25.1 15.7 60.3 50 5.3 41.6
08:00 1020 30.12 850 25.1 15.9 60.6 51 5.8 42.5
08:05 1020 30.12 850 25.1 15.8 60.5 53 6.3 43.3
08:10 1021 30.15 850 25.1 16.1 61 53 6.7 44.1
08:15 1021 30.15 850 25.1 16.6 61.9 51 6.6 43.8
08:20 1021 30.15 850 25.1 16.8 62.2 49 6.1 42.9
08:25 1021 30.15 850 25.1 16.7 62 51 6.7 44
08:30 1021 30.15 850 25.1 17 62.6 50 6.5 43.7
08:35 1020 30.12 850 25.1 17.3 63.1 45 5.3 41.5
08:40 1020 30.12 850 25.1 17.6 63.7 44 5.5 41.9
08:45 1020 30.12 850 25.1 18.2 64.8 45 6.1 43
08:50 1021 30.15 850 25.1 18.7 65.7 43 6 42.9
08:55 1020 30.12 850 25.1 19.2 66.6 41 5.7 42.3
09:00 1021 30.15 850 25.1 19.2 66.5 42 6.2 43.2
09:05 1021 30.15 850 25.1 19.6 67.3 41 6 42.9
09:10 1021 30.15 850 25.1 20.1 68.2 39 5.8 42.5
09:15 1021 30.15 850 25.1 20.3 68.6 39 6.1 43
09:20 1020 30.12 850 25.1 20.6 69 39 6.3 43.3
09:25 1020 30.12 850 25.1 21 69.7 37 6.1 42.9
09:30 1020 30.12 850 25.1 20.7 69.3 40 6.9 44.5
09:35 1020 30.12 850 25.1 19.6 67.3 42 6.6 43.8
09:40 1021 30.15 850 25.1 19.9 67.7 40 6.2 43.1
09:45 1020 30.12 850 25.1 19.9 67.7 41 6.3 43.3
09:50 1020 30.12 850 25.1 20.2 68.4 40 6.4 43.6
09:55 1020 30.12 850 25.1 20 68.1 42 6.8 44.3
10:00 1020 30.12 850 25.1 20.3 68.5 39 6 42.7
10:05 1020 30.12 850 25.1 21 69.9 38 6.2 43.2
10:10 1020 30.12 850 25.1 21 69.8 39 6.8 44.2
10:15 1020 30.12 850 25.1 21.1 69.9 39 6.8 44.2
10:20 1020 30.12 850 25.1 21.5 70.7 38 6.9 44.4
10:25 1020 30.12 849 25.07 21.8 71.2 36 6.1 43
10:30 1020 30.12 849 25.07 22.2 72 34 5.6 42.1
10:35 1020 30.12 849 25.07 21.8 71.2 34 5.3 41.6
10:40 1020 30.12 849 25.07 22.3 72.1 34 5.7 42.3
10:45 1020 30.12 849 25.07 22.1 71.7 33 5.2 41.4
10:50 1020 30.12 849 25.07 22.4 72.2 31 4.5 40.1
10:55 1020 30.12 849 25.07 22.7 72.8 32 5.2 41.4
11:00 1020 30.12 849 25.07 21.9 71.5 33 5 41
11:05 1020 30.12 849 25.07 22.7 72.8 33 5.7 42.3
11:10 1020 30.12 849 25.07 22.7 72.9 33 5.8 42.5
11:15 1020 30.12 849 25.07 22.5 72.4 34 5.9 42.6
11:20 1020 30.12 849 25.07 21.8 71.3 34 5.3 41.6
11:25 1020 30.12 849 25.07 22.3 72.1 33 5.6 42
11:30 1020 30.12 849 25.07 22.9 73.2 33 5.8 42.4
11:35 1020 30.12 849 25.07 23.4 74.2 32 6.1 43
11:40 1020 30.12 849 25.07 23.5 74.4 32 6.3 43.3
11:45 1020 30.12 849 25.07 24.1 75.4 31 6.2 43.1
11:50 1020 30.12 849 25.07 23.5 74.4 31 5.8 42.4
11:55 1020 30.12 849 25.07 23.2 73.8 32 5.9 42.6
12:00 1020 30.12 849 25.07 24.2 75.5 31 6.4 43.4
12:05 1020 30.12 849 25.07 23.7 74.6 32 6.4 43.6
12:10 1020 30.12 849 25.07 24 75.1 31 5.9 42.6
12:15 1020 30.12 849 25.07 23.8 74.9 33 6.8 44.3
12:20 1020 30.12 849 25.07 25.2 77.4 28 5.9 42.7
12:25 1020 30.12 849 25.07 25.9 78.6 29 6.8 44.3
12:30 1019 30.09 849 25.07 25.9 78.7 28 6.3 43.3
12:35 1019 30.09 849 25.07 26 78.7 29 6.7 44
12:40 1019 30.09 849 25.07 25.6 78.1 29 6.6 43.9
12:45 1019 30.09 849 25.07 25.9 78.6 29 6.9 44.4
12:50 1019 30.09 848 25.04 26.3 79.3 28 6.6 43.9
12:55 1019 30.09 848 25.04 26.3 79.4 27 6.2 43.2
13:00 1019 30.09 848 25.04 26.3 79.3 29 7.1 44.8
13:05 1019 30.09 848 25.04 26.7 80.1 27 6.5 43.6
13:10 1019 30.09 848 25.04 27 80.6 27 6.8 44.2
13:15 1019 30.09 848 25.04 26.7 80.1 25 5.4 41.8
13:20 1019 30.09 848 25.04 26.5 79.6 27 6.5 43.6
13:25 1019 30.09 848 25.04 27.1 80.7 26 6.4 43.6
13:30 1019 30.09 848 25.04 27.6 81.7 25 6.2 43.1
13:35 1019 30.09 848 25.04 27.4 81.4 25 5.8 42.4
13:40 1019 30.09 848 25.04 27.6 81.6 25 6 42.8
13:45 1019 30.09 848 25.04 27.8 82.1 25 6.2 43.2
13:50 1019 30.09 848 25.04 27.8 82 23 5.1 41.2
13:55 1019 30.09 848 25.04 28.4 83.2 24 6.3 43.3
14:00 1019 30.09 848 25.04 28.6 83.4 22 5 41
14:05 1019 30.09 848 25.04 28.8 83.8 23 5.7 42.2
14:10 1018 30.06 848 25.04 28.5 83.2 23 5.4 41.8
14:15 1018 30.06 848 25.04 27.4 81.3 23 4.6 40.2
14:20 1018 30.06 848 25.04 27.4 81.3 23 4.9 40.7
14:25 1018 30.06 848 25.04 28.6 83.5 20 4 39.2
14:30 1018 30.06 848 25.04 28.9 84.1 20 4.3 39.8
14:35 1018 30.06 848 25.04 28.8 83.8 22 5.4 41.7
14:40 1018 30.06 847 25.01 28.6 83.4 21 4.4 39.9
14:45 1018 30.06 847 25.01 28.9 84.1 20 4.1 39.4
14:50 1018 30.06 847 25.01 29.3 84.7 21 4.8 40.6
14:55 1018 30.06 847 25.01 29.2 84.5 20 4.2 39.6
15:00 1018 30.06 847 25.01 29.7 85.5 20 4.6 40.2
15:05 1018 30.06 847 25.01 29.4 84.9 20 4.3 39.8
15:10 1018 30.06 847 25.01 29.1 84.5 20 4.3 39.7
15:15 1018 30.06 847 25.01 29.8 85.6 19 4 39.1
15:20 1018 30.06 847 25.01 30 85.9 19 4.3 39.8
15:25 1018 30.06 847 25.01 30.2 86.3 19 4.4 39.9
15:30 1018 30.06 847 25.01 30.1 86.1 18 3.7 38.7
15:35 1018 30.06 847 25.01 29.9 85.7 19 4.2 39.5
15:40 1018 30.06 847 25.01 29.9 85.8 19 4 39.2
15:45 1018 30.06 847 25.01 29.8 85.7 19 4 39.2
15:50 1018 30.06 847 25.01 30.2 86.4 19 4.3 39.8
15:55 1018 30.06 847 25.01 30.2 86.4 18 3.5 38.4
16:00 1018 30.06 847 25.01 29.9 85.7 17 2.8 37
16:05 1018 30.06 847 25.01 29.3 84.7 19 3.4 38.2
16:10 1018 30.06 847 25.01 29.8 85.6 18 3.1 37.6
16:15 1018 30.06 847 25.01 29.9 85.8 18 3.7 38.7
16:20 1018 30.06 847 25.01 30.2 86.3 19 4 39.2
16:25 1018 30.06 847 25.01 29.5 85 18 2.9 37.3
16:30 1017 30.03 847 25.01 29 84.2 19 3.2 37.8
16:35 1017 30.03 847 25.01 29.4 84.9 19 3.7 38.6
16:40 1017 30.03 847 25.01 29.4 85 19 3.7 38.7
16:45 1017 30.03 847 25.01 29.1 84.3 19 3.3 38
16:50 1017 30.03 847 25.01 29.1 84.5 19 3.6 38.4
16:55 1017 30.03 847 25.01 29.5 85 19 3.4 38.2
17:00 1017 30.03 846 24.98 29.6 85.3 20 4.5 40
17:05 1017 30.03 847 25.01 29.5 85 19 3.9 39
17:10 1017 30.03 847 25.01 29.8 85.6 19 3.7 38.7
17:15 1017 30.03 847 25.01 29.8 85.6 19 3.8 38.8
17:20 1017 30.03 847 25.01 29.8 85.6 19 4 39.3
17:25 1017 30.03 847 25.01 30 85.9 19 4 39.1
17:30 1017 30.03 846 24.98 30 85.9 18 3.4 38
17:35 1017 30.03 846 24.98 29.5 85 19 3.8 38.9
17:40 1017 30.03 846 24.98 29.8 85.6 19 3.6 38.5
17:45 1017 30.03 846 24.98 29.4 84.9 20 4.4 40
17:50 1017 30.03 846 24.98 29.6 85.3 19 4.1 39.4
17:55 1017 30.03 846 24.98 29.8 85.7 18 3.4 38.1
18:00 1017 30.03 846 24.98 30.1 86.1 18 3.2 37.8
18:05 1017 30.03 846 24.98 30 86 19 4.1 39.4
18:10 1017 30.03 846 24.98 30 85.9 18 3.4 38.1
18:15 1017 30.03 846 24.98 29.7 85.5 17 2.7 36.9
18:20 1017 30.03 846 24.98 29.6 85.2 18 3 37.4
18:25 1017 30.03 846 24.98 29.2 84.5 18 3 37.5
18:30 1017 30.03 846 24.98 28.9 84 17 2.1 35.7
18:35 1017 30.03 846 24.98 28.9 84 19 3.2 37.8
18:40 1017 30.03 846 24.98 28.6 83.5 19 2.9 37.1
18:45 1017 30.03 846 24.98 28.5 83.2 20 3.5 38.3
18:50 1017 30.03 846 24.98 28 82.5 19 2.7 36.8
18:55 1017 30.03 846 24.98 27.8 82 19 2.1 35.8
19:00 1017 30.03 846 24.98 27.8 82.1 19 2.3 36.1
19:05 1017 30.03 846 24.98 27.9 82.3 20 2.9 37.3
19:10 1017 30.03 846 24.98 27.7 81.9 20 3.2 37.8
19:15 1017 30.03 846 24.98 27.6 81.7 19 2.4 36.4
19:20 1017 30.03 846 24.98 27.6 81.8 20 3 37.5
19:25 1017 30.03 846 24.98 27.6 81.6 19 2.5 36.6
19:30 1017 30.03 846 24.98 27.5 81.5 19 2.2 36
19:35 1017 30.03 846 24.98 27.5 81.5 20 2.9 37.2
19:40 1017 30.03 846 24.98 27.5 81.6 20 2.6 36.8
19:45 1017 30.03 846 24.98 27.4 81.3 22 4.3 39.7
19:50 1017 30.03 846 24.98 27.1 80.8 23 4.5 40.1
19:55 1017 30.03 846 24.98 27 80.5 23 4.3 39.7
20:00 1017 30.03 846 24.98 26.8 80.3 24 4.9 40.7
20:05 1017 30.03 846 24.98 26.5 79.7 24 4.3 39.7
20:10 1017 30.03 846 24.98 26.5 79.6 26 5.6 42.1
20:15 1017 30.03 846 24.98 26.2 79.1 29 7.3 45.1
20:20 1017 30.03 846 24.98 25.7 78.3 33 8.5 47.2
20:25 1017 30.03 846 24.98 25.2 77.3 34 8.6 47.4
20:30 1017 30.03 846 24.98 24.5 76 38 9.3 48.7
20:35 1017 30.03 846 24.98 23.9 74.9 42 10.2 50.4
20:40 1017 30.03 846 24.98 23.2 73.8 43 10.3 50.5
20:45 1017 30.03 846 24.98 22.5 72.4 42 8.9 48.1
20:50 1017 30.03 846 24.98 22 71.6 41 8.1 46.6
20:55 1017 30.03 846 24.98 21.8 71.2 41 8 46.4
21:00 1017 30.03 846 24.98 21.4 70.4 44 8.9 48
21:05 1017 30.03 846 24.98 20.6 69.1 47 9.1 48.4
21:10 1017 30.03 846 24.98 20 68.1 46 8.4 47
21:15 1017 30.03 846 24.98 19.8 67.6 43 7 44.7
21:20 1017 30.03 846 24.98 20.4 68.8 39 6.3 43.4
21:25 1017 30.03 846 24.98 20.7 69.3 40 6.7 44.1
21:30 1017 30.03 846 24.98 20.7 69.3 39 6.6 43.9
21:35 1017 30.03 846 24.98 20.6 69.1 40 6.6 43.9
21:40 1017 30.03 846 24.98 20.2 68.4 42 7 44.7
21:45 1017 30.03 846 24.98 19.8 67.6 41 6.4 43.6
21:50 1017 30.03 846 24.98 19.9 67.7 41 6.5 43.6
21:55 1017 30.03 846 24.98 19.8 67.7 41 6.3 43.4
22:00 1017 30.03 846 24.98 20.2 68.4 38 5.5 41.8
22:05 1017 30.03 847 25.01 20.8 69.4 35 5 40.9
22:10 1017 30.03 847 25.01 21 69.7 39 6.5 43.8
22:15 1017 30.03 847 25.01 20.5 68.9 39 6.1 43
22:20 1017 30.03 847 25.01 20.2 68.4 38 5.6 42.1
22:25 1017 30.03 847 25.01 20.4 68.8 39 6.1 43
22:30 1017 30.03 847 25.01 20 68 39 5.9 42.6
22:35 1017 30.03 847 25.01 20.1 68.2 36 4.7 40.4
22:40 1017 30.03 847 25.01 20.9 69.6 33 4.3 39.8
22:45 1017 30.03 847 25.01 21.6 71 31 3.8 38.8
22:50 1017 30.03 846 24.98 22.2 72 30 3.9 39.1
22:55 1017 30.03 847 25.01 22.3 72.1 30 3.8 38.9
23:00 1017 30.03 846 24.98 22.4 72.2 29 3.8 38.8
23:05 1017 30.03 846 24.98 22.4 72.3 29 3.7 38.7
23:10 1017 30.03 846 24.98 22.5 72.5 29 3.8 38.8
23:15 1017 30.03 846 24.98 22.5 72.5 29 3.7 38.7
23:20 1017 30.03 846 24.98 22.5 72.5 29 3.8 38.8
23:25 1017 30.03 846 24.98 22.5 72.4 29 3.7 38.6
23:30 1017 30.03 847 25.01 22.4 72.3 29 3.7 38.6
23:35 1017 30.03 847 25.01 22.4 72.2 29 3.6 38.5
23:40 1017 30.03 847 25.01 22.4 72.3 28 3.3 37.9
23:45 1017 30.03 847 25.01 22.5 72.5 28 3.5 38.2
23:50 1017 30.03 847 25.01 22.6 72.6 28 3.3 37.9
23:55 1017 30.03 847 25.01 22.6 72.7 28 3.4 38.1
24:00 1017 30.03 847 25.01 22.5 72.6 28 3.3 37.9